• Join FlightAware (Why Join?)
  • Login
  • US Flag 
02:26PM EDT


 

Airport Tracker/Info


-or-


 

Live Flight TrackerFlight Track Log ✈ ASQ4136 ✈ 24-Apr-2013 ✈ KIAH - KCMH

Flight Track Log - Related Links

Times and Time Zones

All times are in EDT time to prevent confusion due to time zone crossing. See the ASQ4136 flight status page for this flight to view local times or setup timezone preferences in your user account.

Time Position Orientation Groundspeed Altitude Reporting Facility
EDT Latitude Longitude Course Direction KTS MPH feet Rate Location/Type
08:39AM 29.9778 -95.3367 30° Northeast 164 189 700  Level Houston Center
08:40AM 29.9983 -95.3994 291° West 225 259 2,700 1,500 Climbing Houston Center
08:41AM 30.0217 -95.3878 23° Northeast 239 275 3,400 1,260 Climbing Houston Center
08:41AM 30.0706 -95.3617 25° Northeast 277 319 4,100 780 Climbing Houston Center
08:42AM 30.3262 -95.1949 14° North  Level FlightAware Approximate
08:42AM 30.0889 -95.3533 21° North 260 299 4,200  Level Houston Center
08:42AM 30.1406 -95.3244 26° Northeast 285 328 6,000 2,400 Climbing Houston Center
08:43AM 30.4400 -95.1460 27° Northeast  Level FlightAware Approximate
08:43AM 30.1606 -95.3144 23° Northeast 280 322 6,700  Level Houston Center
08:43AM 30.2128 -95.2867 25° Northeast 285 328 8,500 2,880 Climbing Houston Center
08:44AM 30.5495 -95.0892 30° Northeast  Level FlightAware Approximate
08:44AM 30.2486 -95.2694 23° Northeast 287 330 9,700  Level Houston Center
08:45AM 30.3292 -95.2258 25° Northeast 316 364 10,000 120 Climbing Houston Center
08:46AM 30.4222 -95.1775 24° Northeast 360 414 10,000 240 Level Houston Center
08:47AM 30.5186 -95.1189 28° Northeast 367 422 10,600 1,200 Climbing Houston Center
08:48AM 30.6086 -95.0631 28° Northeast 366 421 12,500 1,500 Climbing Houston Center
08:49AM 30.6981 -95.0078 28° Northeast 363 418 13,700 1,020 Climbing Houston Center
08:50AM 30.7914 -94.9494 28° Northeast 378 435 14,700 960 Climbing Houston Center
08:51AM 30.8883 -94.8883 28° Northeast 394 453 15,700 1,200 Climbing Houston Center
08:52AM 30.9858 -94.8283 28° Northeast 397 457 17,200 1,200 Climbing Houston Center
08:53AM 31.0956 -94.7594 28° Northeast 394 453 18,200 960 Climbing Fort Worth Center
08:54AM 31.1967 -94.6936 29° Northeast 407 468 19,200 960 Climbing Fort Worth Center
08:55AM 31.2994 -94.6247 30° Northeast 407 468 20,200 960 Climbing Fort Worth Center
08:56AM 31.4042 -94.5511 31° Northeast 412 474 21,200 960 Climbing Fort Worth Center
08:57AM 31.5111 -94.4772 30° Northeast 424 488 22,200 960 Climbing Fort Worth Center
08:58AM 31.6158 -94.4056 30° Northeast 424 488 23,200 960 Climbing Fort Worth Center
08:59AM 31.7206 -94.3314 31° Northeast 434 499 24,200 960 Climbing Fort Worth Center
09:00AM 31.8253 -94.2592 30° Northeast 439 505 25,200 960 Climbing Fort Worth Center
09:01AM 31.9339 -94.1822 31° Northeast 439 505 26,200 960 Climbing Fort Worth Center
09:02AM 32.0406 -94.1072 31° Northeast 439 505 27,200 960 Climbing Fort Worth Center
09:03AM 32.1472 -94.0322 31° Northeast 439 505 28,200 960 Climbing Fort Worth Center
09:04AM 32.2514 -93.9522 33° Northeast 439 505 29,200 960 Climbing Fort Worth Center
09:05AM 32.3558 -93.8769 31° Northeast 439 505 30,200 960 Climbing Fort Worth Center
09:06AM 32.4622 -93.8014 31° Northeast 439 505 31,200 960 Climbing Fort Worth Center
09:07AM 32.5686 -93.7281 30° Northeast 439 505 32,200 900 Climbing Fort Worth Center
09:08AM 32.6789 -93.6497 31° Northeast 444 511 33,000 360 Climbing Fort Worth Center
09:09AM 32.7933 -93.5683 31° Northeast 456 525 33,000  Level Fort Worth Center
09:10AM 32.9078 -93.4867 31° Northeast 461 531 33,000 300 Level Fort Worth Center
09:11AM 33.0222 -93.4047 31° Northeast 466 536 33,700 780 Climbing Fort Worth Center
09:12AM 33.1364 -93.3228 31° Northeast 471 542 34,600 600 Climbing Fort Worth Center
09:13AM 33.2506 -93.2406 31° Northeast 476 548 35,000 120 Climbing Fort Worth Center
09:15AM 33.4711 -93.0792 31° Northeast 494 568 35,000  Level Memphis Center
09:16AM 33.5856 -92.9956 31° Northeast 494 568 35,000  Level Memphis Center
09:17AM 33.7022 -92.9139 30° Northeast 482 555 35,000  Level Memphis Center
09:18AM 33.8164 -92.8300 31° Northeast 476 548 35,000  Level Memphis Center
09:19AM 33.9331 -92.7431 32° Northeast 476 548 35,000  Level Memphis Center
09:20AM 34.0494 -92.6586 31° Northeast 481 554 35,000  Level Memphis Center
09:21AM 34.1742 -92.5564 34° Northeast 481 554 35,000  Level Memphis Center
09:22AM 34.2928 -92.4689 31° Northeast 492 566 35,000  Level Memphis Center
09:23AM 34.4131 -92.3814 31° Northeast 497 572 35,000  Level Memphis Center
09:24AM 34.5333 -92.2883 33° Northeast 503 579 35,000  Level Memphis Center
09:25AM 34.6517 -92.1975 32° Northeast 503 579 35,000  Level Memphis Center
09:26AM 34.7533 -92.0836 43° Northeast 503 579 35,000  Level Memphis Center
09:27AM 34.8533 -91.9539 47° Northeast 503 579 35,000  Level Memphis Center
09:28AM 34.9572 -91.8217 46° Northeast 515 593 35,000  Level Memphis Center
09:29AM 35.0586 -91.6939 46° Northeast 520 598 35,000  Level Memphis Center
09:30AM 35.1558 -91.5633 48° Northeast 520 598 35,000  Level Memphis Center
09:31AM 35.2572 -91.4328 46° Northeast 520 598 35,000  Level Memphis Center
09:32AM 35.3606 -91.3017 46° Northeast 520 598 35,000  Level Memphis Center
09:33AM 35.4531 -91.1856 46° Northeast 520 598 35,000  Level Memphis Center
09:34AM 35.5561 -91.0486 47° Northeast 528 608 35,000  Level Memphis Center
09:35AM 35.6569 -90.9167 47° Northeast 533 613 35,000  Level Memphis Center
09:36AM 35.7575 -90.7714 50° Northeast 518 596 35,000  Level Memphis Center
09:37AM 35.8603 -90.6386 46° Northeast 518 596 35,000  Level Memphis Center
09:38AM 35.9667 -90.5031 46° Northeast 523 602 35,000  Level Memphis Center
09:39AM 36.0628 -90.3672 49° Northeast 528 608 35,000  Level Memphis Center
09:40AM 36.1669 -90.2311 47° Northeast 528 608 35,000  Level Memphis Center
09:41AM 36.2667 -90.0944 48° Northeast 528 608 35,000  Level Memphis Center
09:42AM 36.3664 -89.9628 47° Northeast 528 608 35,000  Level Memphis Center
09:43AM 36.4681 -89.8253 47° Northeast 528 608 35,000  Level Memphis Center
09:44AM 36.5694 -89.6878 47° Northeast 528 608 35,000  Level Memphis Center
09:45AM 36.6708 -89.5497 47° Northeast 528 608 35,000  Level Memphis Center
09:46AM 36.7700 -89.4117 48° Northeast 528 608 35,000  Level Memphis Center
09:47AM 36.8708 -89.2728 48° Northeast 528 608 35,000  Level Memphis Center
09:48AM 36.9594 -89.1497 48° Northeast 528 608 35,000  Level Memphis Center
09:49AM 37.0600 -89.0103 48° Northeast 528 608 35,000  Level Memphis Center
09:50AM 37.1583 -88.8708 48° Northeast 528 608 35,000  Level Memphis Center
09:51AM 37.2586 -88.7333 47° Northeast 528 608 35,000  Level Memphis Center
09:52AM 37.3589 -88.5903 49° Northeast 533 613 35,000  Level Memphis Center
09:54AM 37.5744 -88.2725 49° Northeast 547 629 35,000  Level Indianapolis Center
09:55AM 37.6894 -88.1078 49° Northeast 545 627 35,000  Level Indianapolis Center
09:56AM 37.7914 -87.9481 51° Northeast 544 626 35,000  Level Indianapolis Center
09:57AM 37.8603 -87.7761 63° Northeast 545 627 35,000  Level Indianapolis Center
09:58AM 37.9292 -87.6022 63° Northeast 549 632 35,000  Level Indianapolis Center
09:59AM 37.9975 -87.4297 63° Northeast 548 631 35,000  Level Indianapolis Center
10:01AM 38.0644 -87.2569 64° Northeast 547 629 35,000  Level Indianapolis Center
10:02AM 38.1425 -87.0550 64° Northeast 539 620 35,000  Level Indianapolis Center
10:03AM 38.2072 -86.8886 64° Northeast 538 619 35,000 -540 Level Indianapolis Center
10:04AM 38.2706 -86.7214 64° Northeast 531 611 34,000 -1,020 Descending Indianapolis Center
10:05AM 38.3336 -86.5553 64° Northeast 523 602 33,000 -1,020 Descending Indianapolis Center
10:06AM 38.3975 -86.3878 64° Northeast 524 603 32,000 -960 Descending Indianapolis Center
10:07AM 38.4608 -86.2167 65° Northeast 531 611 31,100 -540 Descending Indianapolis Center
10:08AM 38.5375 -86.0131 64° Northeast 530 610 31,000 -60 Descending Indianapolis Center
10:09AM 38.6011 -85.8431 64° Northeast 529 609 31,000  Level Indianapolis Center
10:10AM 38.6594 -85.6856 65° Northeast 533 613 31,000  Level Indianapolis Center
10:11AM 38.7322 -85.4858 65° Northeast 529 609 31,000  Level Indianapolis Center
10:12AM 38.7953 -85.3136 65° Northeast 531 611 31,000  Level Indianapolis Center
10:13AM 38.8581 -85.1417 65° Northeast 532 612 31,000 -360 Level Indianapolis Center
10:14AM 38.9194 -84.9681 66° East 532 612 30,300 -1,260 Descending Indianapolis Center
10:15AM 38.9872 -84.7803 65° Northeast 517 595 28,500 -1,740 Descending Indianapolis Center
10:16AM 39.0619 -84.6192 59° Northeast 520 598 26,800 -1,260 Descending Indianapolis Center
10:17AM 39.1492 -84.4628 54° Northeast 530 610 26,000 -900 Descending Indianapolis Center
10:18AM 39.2336 -84.3061 55° Northeast 528 608 25,000 -1,260 Descending Indianapolis Center
10:19AM 39.3128 -84.1503 57° Northeast 517 595 23,500 -1,500 Descending Indianapolis Center
10:20AM 39.3711 -83.9978 64° Northeast 470 541 22,000 -1,860 Descending Indianapolis Center
10:21AM 39.4297 -83.8439 64° Northeast 475 547 19,700 -2,220 Descending Indianapolis Center
10:22AM 39.4856 -83.6981 64° Northeast 455 524 17,500 -2,520 Descending Indianapolis Center
10:22AM 39.5092 -83.6383 63° Northeast 447 514 16,400 -3,240 Descending Indianapolis Center
10:23AM 39.5489 -83.5281 65° Northeast 449 517 14,200 -2,940 Descending Indianapolis Center
10:24AM 39.5844 -83.4419 62° Northeast 433 498 12,300 -2,760 Descending Indianapolis Center
10:24AM 39.6064 -83.3933 60° Northeast 432 497 11,400 -1,260 Descending Indianapolis Center
10:25AM 39.6786 -83.2750 52° Northeast 420 483 10,600 -840 Descending Indianapolis Center
10:26AM 39.7183 -83.2086 52° Northeast 414 476 10,100 -600 Descending Indianapolis Center
10:26AM 39.7486 -83.1578 52° Northeast 413 475 10,000  Descending Indianapolis Center
10:27AM 39.7914 -83.0897 51° Northeast 404 465 10,100  Climbing Indianapolis Center
10:27AM 39.8161 -83.0492 52° Northeast 388 447 10,000 -120 Descending Indianapolis Center
10:28AM 39.8456 -83.0008 52° Northeast 376 433 10,000 -1,200 Level Indianapolis Center
10:28AM 39.8856 -82.9333 52° Northeast 337 388 8,800 -1,680 Descending Indianapolis Center
10:29AM 39.8978 -82.9119 53° Northeast 323 372 8,500 -1,680 Descending Indianapolis Center
10:29AM 39.9097 -82.8250 80° East 314 361 7,100 -1,920 Descending Indianapolis Center
10:30AM 39.9075 -82.7961 96° East 293 337 6,600 -1,680 Descending Indianapolis Center
10:30AM 39.9033 -82.7189 94° East 295 339 5,400 -1,500 Descending Indianapolis Center
10:31AM 39.9019 -82.6922 94° East 282 325 5,100 -780 Descending Indianapolis Center
10:31AM 39.8983 -82.6217 94° East 275 316 4,600 -660 Descending Indianapolis Center
10:32AM 39.9403 -82.5619 47° Northeast 270 311 4,000 -300 Descending Indianapolis Center
10:34AM 39.9856 -82.5992 328° Northwest 227 261 4,000  Level Indianapolis Center
10:35AM 39.9883 -82.6556 274° West 168 193 4,000 -180 Level Indianapolis Center
10:35AM 39.9908 -82.6775 278° West 152 175 3,800 -720 Descending Indianapolis Center
10:36AM 39.9919 -82.7122 272° West 158 182 3,300 -720 Descending Indianapolis Center
10:36AM 39.9933 -82.7322 275° West 153 176 3,100 -840 Descending Indianapolis Center